LFLC/CFE METAR and TAF weather

Enter ICAO airport designator
Station Type Date Time Source
LFLC METAR 2019/12/12 09:00 UTC NOAA

LFLC 120900Z AUTO 15004KT 130V190 9999 FEW043 BKN070 OVC080 04/M00 Q1009 NOSIG


Station Type Date Time Source
LFLC Decoded METAR 2019/12/12 09:00 UTC NOAA

Clermont-Ferrand, France (LFLC) 45-47N 003-10E 330M
Dec 12, 2019 - 04:00 AM EST / 2019.12.12 0900 UTC
Wind: from the SSE (150 degrees) at 5 MPH (4 KT) (direction variable):0
Visibility: greater than 7 mile(s):0
Sky conditions: overcast
Temperature: 39 F (4 C)
Dew Point: 32 F (0 C)
Relative Humidity: 75%
Pressure (altimeter): 29.80 in. Hg (1009 hPa)
ob: LFLC 120900Z AUTO 15004KT 130V190 9999 FEW043 BKN070 OVC080 04/M00 Q1009 NOSIG
cycle: 9

Station Type Date Time Source
LFLC TAF 2019/12/12 09:57 UTC NOAA

TAF LFLC 120800Z 1209/1309 16009KT 9999 BKN050
BECMG 1215/1217 18015G25KT PROB30
TEMPO 1217/1220 -RA OVC040
BECMG 1220/1222 20010KT
BECMG 1223/1302 -RA
BECMG 1302/1304 25015G30KT
TEMPO 1304/1308 28025G40KT 4000 RA PROB30
TEMPO 1305/1307 29025G50KT 2500 SHRA FEW035CB BKN040

Example: see airport list